createdAt,value
2018-09-22T00:01:19.637Z,0.77
2018-09-22T00:03:47.513Z,1.17
2018-09-22T00:06:15.409Z,1.43
2018-09-22T00:08:43.409Z,1.83
2018-09-22T00:11:11.477Z,0.73
2018-09-22T00:13:39.586Z,1.80
2018-09-22T00:16:07.770Z,0.50
2018-09-22T00:18:35.710Z,1.00
2018-09-22T00:21:03.761Z,1.30
2018-09-22T00:23:31.858Z,0.90
2018-09-22T00:25:59.907Z,0.97
2018-09-22T00:28:27.793Z,0.80
2018-09-22T00:30:55.745Z,0.70
2018-09-22T00:33:23.842Z,1.30
2018-09-22T00:35:51.902Z,1.43
2018-09-22T00:38:19.982Z,0.80
2018-09-22T00:40:48.029Z,1.00
2018-09-22T00:43:15.922Z,1.10
2018-09-22T00:45:43.865Z,1.87
2018-09-22T00:48:11.758Z,0.60
2018-09-22T00:50:39.634Z,0.93
2018-09-22T00:53:07.757Z,1.93
2018-09-22T00:55:35.642Z,2.03
2018-09-22T00:58:03.529Z,0.90
2018-09-22T01:00:31.413Z,0.50
2018-09-22T01:02:59.304Z,0.90
2018-09-22T01:05:27.178Z,1.17
2018-09-22T01:07:55.166Z,1.10
2018-09-22T01:10:23.046Z,0.80
2018-09-22T01:12:51.124Z,1.10
2018-09-22T01:15:19.010Z,1.00
2018-09-22T01:17:46.961Z,1.23
2018-09-22T01:20:15.022Z,0.87
2018-09-22T01:22:42.910Z,0.87
2018-09-22T01:25:10.798Z,2.10
2018-09-22T01:27:38.694Z,1.10
2018-09-22T01:30:06.689Z,0.83
2018-09-22T01:32:34.598Z,0.87
2018-09-22T01:35:02.542Z,1.00
2018-09-22T01:37:30.429Z,1.30
2018-09-22T01:39:58.318Z,1.67
2018-09-22T01:42:26.214Z,1.37
2018-09-22T01:44:54.093Z,1.37
2018-09-22T01:47:21.986Z,0.70
2018-09-22T01:49:50.029Z,1.00
2018-09-22T01:52:17.956Z,0.97
2018-09-22T01:54:45.825Z,0.83
2018-09-22T01:57:13.697Z,1.13
2018-09-22T01:59:41.716Z,0.93
2018-09-22T02:02:09.598Z,1.60
2018-09-22T02:04:37.562Z,1.50
2018-09-22T02:07:05.446Z,1.27
2018-09-22T02:09:33.348Z,0.70
2018-09-22T02:12:01.450Z,1.00
2018-09-22T02:14:29.533Z,1.60
2018-09-22T02:16:57.409Z,0.67
2018-09-22T02:19:25.365Z,1.80
2018-09-22T02:21:53.426Z,0.73
2018-09-22T02:24:21.514Z,1.90
2018-09-22T02:26:49.561Z,1.00
2018-09-22T02:29:17.653Z,1.63
2018-09-22T02:31:45.714Z,1.13
2018-09-22T02:34:13.725Z,1.70
2018-09-22T02:36:41.609Z,0.57
2018-09-22T02:39:10.484Z,1.67
2018-09-22T02:41:38.609Z,0.70
2018-09-22T02:44:06.509Z,1.30
2018-09-22T02:46:34.450Z,1.13
2018-09-22T02:49:02.332Z,1.20
2018-09-22T02:51:30.242Z,2.33
2018-09-22T02:53:58.616Z,2.17
2018-09-22T02:56:26.625Z,1.40
2018-09-22T02:58:54.518Z,1.03
2018-09-22T03:01:22.413Z,1.40
2018-09-22T03:03:50.361Z,1.27
2018-09-22T03:06:18.543Z,1.03
2018-09-22T03:08:46.648Z,0.90
2018-09-22T03:11:14.516Z,1.00
2018-09-22T03:13:42.626Z,1.40
2018-09-22T03:16:10.510Z,2.13
2018-09-22T03:18:38.462Z,1.23
2018-09-22T03:21:06.522Z,1.00
2018-09-22T03:23:34.416Z,0.90
2018-09-22T03:26:02.353Z,1.07
2018-09-22T03:28:30.258Z,1.80
2018-09-22T03:30:58.186Z,1.20
2018-09-22T03:33:26.289Z,1.33
2018-09-22T03:35:54.170Z,1.00
2018-09-22T03:38:22.099Z,0.70
2018-09-22T03:40:50.199Z,1.60
2018-09-22T03:43:18.242Z,1.43
2018-09-22T03:45:46.126Z,1.10
2018-09-22T03:48:14.007Z,1.63
2018-09-22T03:50:41.896Z,1.40
2018-09-22T03:53:09.910Z,1.50
2018-09-22T03:55:37.803Z,1.73
2018-09-22T03:58:05.714Z,1.20
2018-09-22T04:00:33.610Z,1.70
2018-09-22T04:03:01.582Z,2.13
2018-09-22T04:05:29.479Z,1.40
2018-09-22T04:07:57.356Z,1.23
2018-09-22T04:10:25.450Z,1.50
2018-09-22T04:12:53.322Z,1.37
2018-09-22T04:15:21.365Z,0.93
2018-09-22T04:17:49.253Z,1.10
2018-09-22T04:20:17.405Z,1.90
2018-09-22T04:22:45.484Z,0.70
2018-09-22T04:25:13.625Z,0.70
2018-09-22T04:27:41.682Z,0.80
2018-09-22T04:30:09.565Z,1.13
2018-09-22T04:35:16.074Z,0.93
2018-09-22T04:37:44.230Z,1.40
2018-09-22T04:40:12.150Z,2.67
2018-09-22T04:42:40.246Z,2.20
2018-09-22T04:45:08.339Z,1.00
2018-09-22T04:47:36.392Z,1.10
2018-09-22T04:50:04.282Z,1.13
2018-09-22T04:52:32.149Z,1.60
2018-09-22T04:55:00.047Z,2.23
2018-09-22T04:57:28.058Z,0.93
2018-09-22T04:59:55.945Z,1.63
2018-09-22T05:02:23.814Z,0.73
2018-09-22T05:04:51.986Z,1.03
2018-09-22T05:07:19.863Z,1.10
2018-09-22T05:09:47.730Z,2.00
2018-09-22T05:12:15.621Z,1.90
2018-09-22T05:14:43.506Z,0.97
2018-09-22T05:17:11.454Z,1.83
2018-09-22T05:19:39.298Z,1.43
2018-09-22T05:22:07.198Z,1.40
2018-09-22T05:24:35.333Z,1.23
2018-09-22T05:27:03.398Z,0.80
2018-09-22T05:29:31.446Z,0.60
2018-09-22T05:31:59.538Z,0.90
2018-09-22T05:34:27.594Z,1.27
2018-09-22T05:36:55.510Z,1.07
2018-09-22T05:39:23.373Z,1.20
2018-09-22T05:41:51.316Z,1.90
2018-09-22T05:44:19.266Z,0.80
2018-09-22T05:46:47.358Z,1.53
2018-09-22T05:51:56.532Z,4.60
2018-09-22T05:54:29.598Z,4.93
2018-09-22T05:56:57.766Z,4.73
2018-09-22T05:59:25.647Z,4.23
2018-09-22T06:01:55.890Z,5.60
2018-09-22T06:04:23.814Z,5.77
2018-09-22T06:06:51.886Z,7.10
2018-09-22T06:09:19.872Z,3.20
2018-09-22T06:11:47.774Z,7.87
2018-09-22T06:14:15.783Z,4.17
2018-09-22T06:16:43.867Z,5.03
2018-09-22T06:19:11.755Z,6.67
2018-09-22T06:21:39.661Z,7.20
2018-09-22T06:24:07.563Z,4.30
2018-09-22T06:26:35.542Z,6.33
2018-09-22T06:29:03.436Z,7.53
2018-09-22T06:31:31.375Z,6.30
2018-09-22T06:33:59.261Z,4.63
2018-09-22T06:36:27.212Z,5.67
2018-09-22T06:38:55.257Z,5.83
2018-09-22T06:41:23.369Z,4.83
2018-09-22T06:43:51.406Z,3.07
2018-09-22T06:46:19.591Z,8.53
2018-09-22T06:48:47.531Z,6.13
2018-09-22T06:51:15.417Z,7.50
2018-09-22T06:53:43.317Z,25.73
2018-09-22T06:56:11.953Z,55.77
2018-09-22T06:58:40.205Z,33.40
2018-09-22T07:01:08.280Z,36.20
2018-09-22T07:03:39.841Z,34.53
2018-09-22T07:06:08.311Z,31.00
2018-09-22T07:08:36.804Z,23.27
2018-09-22T07:11:05.073Z,23.60
2018-09-22T07:13:33.538Z,19.93
2018-09-22T07:16:01.630Z,23.40
2018-09-22T07:18:29.741Z,73.97
2018-09-22T07:21:03.189Z,47.00
2018-09-22T07:23:31.318Z,23.17
2018-09-22T07:25:59.198Z,22.40
2018-09-22T07:28:27.153Z,18.03
2018-09-22T07:30:55.255Z,14.67
2018-09-22T07:33:23.735Z,11.30
2018-09-22T07:35:51.663Z,11.33
2018-09-22T07:38:19.569Z,11.67
2018-09-22T07:40:47.464Z,9.03
2018-09-22T07:43:15.364Z,7.83
2018-09-22T07:45:43.355Z,10.43
2018-09-22T07:48:11.414Z,9.40
2018-09-22T07:50:39.470Z,8.80
2018-09-22T07:53:07.562Z,8.93
2018-09-22T07:55:35.726Z,5.97
2018-09-22T07:58:03.697Z,8.00
2018-09-22T08:00:31.683Z,10.23
2018-09-22T08:02:59.491Z,7.70
2018-09-22T08:05:27.593Z,7.83
2018-09-22T08:07:55.484Z,6.47
2018-09-22T08:10:23.415Z,8.47
2018-09-22T08:12:51.326Z,7.33
2018-09-22T08:15:19.229Z,7.17
2018-09-22T08:17:47.393Z,8.03
2018-09-22T08:20:15.442Z,11.00
2018-09-22T08:22:43.319Z,11.30
2018-09-22T08:25:11.280Z,21.57
2018-09-22T08:27:39.321Z,27.20
2018-09-22T08:30:07.413Z,28.93
2018-09-22T08:32:35.590Z,53.83
2018-09-22T08:35:03.688Z,228.03
2018-09-22T08:37:31.237Z,184.17
2018-09-22T08:39:59.385Z,154.93
2018-09-22T08:42:27.390Z,184.40
2018-09-22T08:44:55.579Z,141.23
2018-09-22T08:47:23.412Z,165.30
2018-09-22T08:49:51.374Z,148.70
2018-09-22T08:52:19.411Z,135.90
2018-09-22T08:54:47.284Z,128.53
2018-09-22T08:57:15.258Z,115.57
2018-09-22T08:59:43.453Z,129.37
2018-09-22T09:02:11.390Z,97.73
2018-09-22T09:04:39.478Z,90.10
2018-09-22T09:07:07.394Z,71.67
2018-09-22T09:09:35.318Z,66.43
2018-09-22T09:12:03.401Z,136.53
2018-09-22T09:14:31.328Z,161.93
2018-09-22T09:16:59.190Z,244.33
2018-09-22T09:19:27.054Z,306.13
2018-09-22T09:21:55.067Z,384.77
2018-09-22T09:24:23.260Z,299.90
2018-09-22T09:26:51.166Z,250.80
2018-09-22T09:29:19.049Z,203.03
2018-09-22T09:31:47.032Z,185.93
2018-09-22T09:34:15.090Z,118.50
2018-09-22T09:36:43.012Z,120.27
2018-09-22T09:39:10.922Z,82.87
2018-09-22T09:41:38.826Z,78.37
2018-09-22T09:44:06.774Z,65.80
2018-09-22T09:46:34.960Z,56.87
2018-09-22T09:49:02.898Z,62.57
2018-09-22T09:51:30.798Z,58.77
2018-09-22T09:53:58.740Z,40.23
2018-09-22T09:56:26.962Z,34.23
2018-09-22T09:58:54.851Z,30.93
2018-09-22T10:01:22.965Z,26.10
2018-09-22T10:03:51.022Z,24.60
2018-09-22T10:06:18.919Z,18.20
2018-09-22T10:08:46.873Z,18.27
2018-09-22T10:11:14.768Z,15.63
2018-09-22T10:13:42.695Z,15.47
2018-09-22T10:16:10.593Z,15.30
2018-09-22T10:18:38.475Z,12.27
2018-09-22T10:21:06.370Z,14.47
2018-09-22T10:23:34.253Z,10.90
2018-09-22T10:26:02.172Z,19.60
2018-09-22T10:28:30.125Z,38.63
2018-09-22T10:30:57.985Z,55.07
2018-09-22T10:33:25.866Z,97.73
2018-09-22T10:35:53.813Z,263.93
2018-09-22T10:38:21.786Z,143.43
2018-09-22T10:40:49.660Z,120.13
2018-09-22T10:43:17.701Z,104.07
2018-09-22T10:45:45.585Z,77.93
2018-09-22T10:48:26.060Z,61.87
2018-09-22T10:50:55.657Z,53.70
2018-09-22T10:53:24.544Z,47.77
2018-09-22T10:55:52.502Z,32.90
2018-09-22T10:58:20.594Z,30.43
2018-09-22T11:00:48.643Z,19.87
2018-09-22T11:03:16.715Z,22.67
2018-09-22T11:05:44.790Z,60.40
2018-09-22T11:08:12.660Z,61.50
2018-09-22T11:10:40.546Z,46.07
2018-09-22T11:13:08.441Z,38.00
2018-09-22T11:15:36.318Z,33.77
2018-09-22T11:18:04.213Z,36.63
2018-09-22T11:20:32.089Z,32.73
2018-09-22T11:23:00.066Z,37.83
2018-09-22T11:25:27.945Z,76.90
2018-09-22T11:27:55.851Z,68.17
2018-09-22T11:30:23.962Z,74.17
2018-09-22T11:32:51.957Z,75.97
2018-09-22T11:35:19.924Z,63.07
2018-09-22T11:37:48.314Z,60.90
2018-09-22T11:40:16.247Z,77.70
2018-09-22T11:42:44.151Z,66.70
2018-09-22T11:45:12.029Z,55.23
2018-09-22T11:47:40.398Z,57.43
2018-09-22T11:50:08.278Z,53.40
2018-09-22T11:52:36.181Z,60.07
2018-09-22T11:55:04.187Z,51.47
2018-09-22T11:57:32.086Z,51.47
2018-09-22T11:59:59.965Z,58.77
2018-09-22T12:02:27.986Z,51.03
2018-09-22T12:04:55.878Z,55.03
2018-09-22T12:07:23.763Z,50.13
2018-09-22T12:09:51.864Z,49.53
2018-09-22T12:12:19.762Z,43.53
2018-09-22T12:14:47.709Z,50.77
2018-09-22T12:17:15.788Z,44.23
2018-09-22T12:19:43.985Z,46.43
2018-09-22T12:22:11.937Z,40.57
2018-09-22T12:24:39.880Z,45.37
2018-09-22T12:27:07.770Z,36.40
2018-09-22T12:29:35.750Z,42.47
2018-09-22T12:32:03.984Z,36.83
2018-09-22T12:34:31.797Z,42.03
2018-09-22T12:36:59.714Z,39.73
2018-09-22T12:39:27.589Z,43.17
2018-09-22T12:41:55.485Z,37.63
2018-09-22T12:44:23.367Z,36.83
2018-09-22T12:46:51.250Z,39.03
2018-09-22T12:49:19.146Z,30.50
2018-09-22T12:51:47.023Z,35.10
2018-09-22T12:56:55.405Z,30.73
2018-09-22T12:59:23.298Z,38.33
2018-09-22T13:01:51.177Z,32.77
2018-09-22T13:04:19.296Z,31.70
2018-09-22T13:06:47.347Z,36.60
2018-09-22T13:09:15.562Z,33.73
2018-09-22T13:11:43.434Z,29.53
2018-09-22T13:14:11.330Z,27.63
2018-09-22T13:16:39.214Z,35.20
2018-09-22T13:19:07.534Z,26.80
2018-09-22T13:21:35.433Z,30.73
2018-09-22T13:24:03.569Z,30.67
2018-09-22T13:26:31.469Z,32.20
2018-09-22T13:28:59.370Z,24.30
2018-09-22T13:31:27.270Z,27.07
2018-09-22T13:33:55.170Z,25.17
2018-09-22T13:36:23.280Z,24.03
2018-09-22T13:38:51.361Z,23.73
2018-09-22T13:41:19.251Z,28.87
2018-09-22T13:43:47.137Z,28.63
2018-09-22T13:46:15.253Z,27.57
2018-09-22T13:48:43.337Z,24.67
2018-09-22T13:51:11.398Z,28.10
2018-09-22T13:53:39.290Z,23.30
2018-09-22T13:56:07.274Z,23.63
2018-09-22T13:58:35.330Z,27.03
2018-09-22T14:01:03.218Z,25.00
2018-09-22T14:03:31.201Z,23.77
2018-09-22T14:05:59.210Z,25.40
2018-09-22T14:08:27.300Z,22.87
2018-09-22T14:10:55.166Z,24.83
2018-09-22T14:13:23.138Z,22.63
2018-09-22T14:15:51.233Z,23.27
2018-09-22T14:18:19.257Z,26.10
2018-09-22T14:20:47.150Z,19.00
2018-09-22T14:23:15.093Z,19.77
2018-09-22T14:25:43.102Z,16.73
2018-09-22T14:28:10.981Z,19.10
2018-09-22T14:30:39.013Z,19.60
2018-09-22T14:33:07.011Z,18.57
2018-09-22T14:35:34.906Z,21.73
2018-09-22T14:38:02.793Z,18.20
2018-09-22T14:40:30.716Z,17.43
2018-09-22T14:42:58.558Z,17.13
2018-09-22T14:45:26.520Z,18.90
2018-09-22T14:47:54.578Z,19.23
2018-09-22T14:50:22.465Z,19.03
2018-09-22T14:52:50.405Z,17.53
2018-09-22T14:55:18.310Z,18.13
2018-09-22T14:57:46.182Z,16.83
2018-09-22T15:00:14.074Z,15.20
2018-09-22T15:02:42.082Z,15.83
2018-09-22T15:05:10.178Z,18.27
2018-09-22T15:07:38.162Z,18.20
2018-09-22T15:10:06.313Z,16.37
2018-09-22T15:12:34.715Z,16.07
2018-09-22T15:15:02.619Z,16.87
2018-09-22T15:17:30.761Z,14.73
2018-09-22T15:19:58.661Z,15.43
2018-09-22T15:22:26.558Z,15.47
2018-09-22T15:24:54.730Z,16.30
2018-09-22T15:27:22.810Z,16.17
2018-09-22T15:29:50.681Z,16.87
2018-09-22T15:32:18.647Z,14.53
2018-09-22T15:34:46.717Z,16.93
2018-09-22T15:37:14.629Z,15.57
2018-09-22T15:39:42.509Z,16.57
2018-09-22T15:42:10.625Z,14.60
2018-09-22T15:44:38.611Z,14.73
2018-09-22T15:47:06.901Z,14.70
2018-09-22T15:49:34.821Z,13.67
2018-09-22T15:52:02.944Z,12.93
2018-09-22T15:54:30.803Z,13.27
2018-09-22T15:56:58.702Z,13.03
2018-09-22T15:59:26.806Z,15.50
2018-09-22T16:01:54.886Z,12.87
2018-09-22T16:04:22.967Z,13.80
2018-09-22T16:06:51.037Z,13.40
2018-09-22T16:09:18.913Z,14.33
2018-09-22T16:11:46.810Z,13.33
2018-09-22T16:14:14.686Z,12.03
2018-09-22T16:16:42.588Z,13.20
2018-09-22T16:19:10.462Z,13.67
2018-09-22T16:21:38.541Z,11.67
2018-09-22T16:24:06.610Z,13.73
2018-09-22T16:26:34.502Z,11.30
2018-09-22T16:29:02.382Z,12.03
2018-09-22T16:31:30.515Z,12.63
2018-09-22T16:33:58.571Z,12.93
2018-09-22T16:36:26.470Z,12.30
2018-09-22T16:38:54.410Z,12.47
2018-09-22T16:41:22.525Z,13.13
2018-09-22T16:43:50.391Z,11.73
2018-09-22T16:46:18.288Z,12.67
2018-09-22T16:48:46.416Z,9.97
2018-09-22T16:51:14.281Z,11.23
2018-09-22T16:53:42.251Z,12.93
2018-09-22T16:56:10.146Z,11.73
2018-09-22T16:58:38.095Z,10.97
2018-09-22T17:01:06.450Z,10.30
2018-09-22T17:03:34.326Z,8.93
2018-09-22T17:06:02.215Z,9.63
2018-09-22T17:08:30.093Z,10.83
2018-09-22T17:10:57.986Z,11.00
2018-09-22T17:13:25.859Z,9.97
2018-09-22T17:15:53.997Z,8.53
2018-09-22T17:18:21.859Z,10.40
2018-09-22T17:20:49.733Z,10.13
2018-09-22T17:23:17.626Z,11.50
2018-09-22T17:25:45.494Z,9.17
2018-09-22T17:28:13.386Z,9.80
2018-09-22T17:30:41.278Z,10.00
2018-09-22T17:33:09.185Z,9.67
2018-09-22T17:35:37.077Z,9.60
2018-09-22T17:38:05.071Z,7.93
2018-09-22T17:40:32.937Z,9.47
2018-09-22T17:43:00.838Z,11.23
2018-09-22T17:45:28.842Z,11.40
2018-09-22T17:47:56.730Z,10.10
2018-09-22T17:50:24.607Z,8.73
2018-09-22T17:52:52.507Z,9.77
2018-09-22T17:55:20.385Z,10.00
2018-09-22T17:57:48.401Z,9.97
2018-09-22T18:00:16.782Z,9.13
2018-09-22T18:02:44.674Z,10.57
2018-09-22T18:05:12.549Z,8.87
2018-09-22T18:07:40.436Z,9.70
2018-09-22T18:10:08.446Z,11.57
2018-09-22T18:12:36.337Z,9.57
2018-09-22T18:15:04.498Z,9.43
2018-09-22T18:17:32.390Z,9.17
2018-09-22T18:20:00.262Z,8.97
2018-09-22T18:22:28.169Z,8.70
2018-09-22T18:24:56.045Z,8.53
2018-09-22T18:27:24.030Z,10.93
2018-09-22T18:29:51.910Z,10.07
2018-09-22T18:32:19.870Z,10.73
2018-09-22T18:34:47.917Z,7.87
2018-09-22T18:37:15.862Z,9.20
2018-09-22T18:39:43.690Z,8.00
2018-09-22T18:42:11.578Z,8.97
2018-09-22T18:44:39.454Z,8.13
2018-09-22T18:47:07.361Z,9.37
2018-09-22T18:49:35.239Z,7.40
2018-09-22T18:52:03.130Z,7.87
2018-09-22T18:54:31.270Z,8.70
2018-09-22T18:56:59.153Z,9.13
2018-09-22T18:59:27.030Z,7.30
2018-09-22T19:01:54.925Z,8.73
2018-09-22T19:04:22.806Z,7.13
2018-09-22T19:06:50.688Z,7.07
2018-09-22T19:09:18.766Z,7.60
2018-09-22T19:11:46.849Z,9.33
2018-09-22T19:14:33.560Z,7.63
2018-09-22T19:17:04.938Z,8.37
2018-09-22T19:19:36.676Z,7.40
2018-09-22T19:22:06.109Z,7.73
2018-09-22T19:25:05.495Z,6.87
2018-09-22T19:27:37.301Z,6.60
2018-09-22T19:30:14.877Z,8.77
2018-09-22T19:32:46.351Z,7.87
2018-09-22T19:35:18.971Z,7.60
2018-09-22T19:38:05.774Z,7.83
2018-09-22T19:40:38.045Z,9.07
2018-09-22T19:43:12.792Z,6.93
2018-09-22T19:45:49.016Z,7.60
2018-09-22T19:50:23.798Z,9.87
2018-09-22T19:52:52.201Z,6.40
2018-09-22T19:55:20.642Z,7.80
2018-09-22T19:57:48.665Z,5.80
2018-09-22T20:00:16.650Z,8.10
2018-09-22T20:02:44.542Z,6.47
2018-09-22T20:05:12.499Z,6.87
2018-09-22T20:07:40.602Z,7.50
2018-09-22T20:10:08.627Z,6.17
2018-09-22T20:12:36.498Z,5.33
2018-09-22T20:15:04.495Z,7.23
2018-09-22T20:17:32.387Z,7.10
2018-09-22T20:20:00.266Z,6.80
2018-09-22T20:22:28.146Z,7.47
2018-09-22T20:24:56.042Z,6.40
2018-09-22T20:27:23.961Z,8.53
2018-09-22T20:29:51.853Z,6.57
2018-09-22T20:32:19.767Z,6.70
2018-09-22T20:34:47.659Z,6.07
2018-09-22T20:37:15.578Z,6.13
2018-09-22T20:39:43.476Z,7.67
2018-09-22T20:42:11.353Z,7.67
2018-09-22T20:44:39.379Z,5.50
2018-09-22T20:47:07.550Z,5.73
2018-09-22T20:49:35.434Z,6.10
2018-09-22T20:52:03.385Z,4.60
2018-09-22T20:54:31.281Z,6.67
2018-09-22T20:56:59.162Z,6.80
2018-09-22T20:59:27.050Z,5.90
2018-09-22T21:01:54.930Z,6.00
2018-09-22T21:04:22.818Z,6.03
2018-09-22T21:06:50.693Z,6.63
2018-09-22T21:09:18.669Z,5.73
2018-09-22T21:11:46.547Z,4.50
2018-09-22T21:14:14.433Z,5.57
2018-09-22T21:16:42.570Z,5.87
2018-09-22T21:19:10.638Z,6.07
2018-09-22T21:21:38.522Z,5.23
2018-09-22T21:24:06.705Z,6.53
2018-09-22T21:26:34.593Z,7.20
2018-09-22T21:29:02.485Z,6.90
2018-09-22T21:31:30.607Z,6.27
2018-09-22T21:33:58.493Z,6.37
2018-09-22T21:36:26.517Z,4.83
2018-09-22T21:38:54.406Z,5.47
2018-09-22T21:41:22.354Z,5.63
2018-09-22T21:43:50.250Z,6.60
2018-09-22T21:46:18.194Z,5.90
2018-09-22T21:48:46.278Z,4.60
2018-09-22T21:51:14.205Z,4.10
2018-09-22T21:53:42.050Z,6.63
2018-09-22T21:56:09.929Z,6.87
2018-09-22T21:58:37.953Z,4.97
2018-09-22T22:01:10.176Z,5.17
2018-09-22T22:03:38.064Z,5.10
2018-09-22T22:06:05.942Z,5.20
2018-09-22T22:08:33.822Z,5.77
2018-09-22T22:11:01.693Z,4.63
2018-09-22T22:13:29.582Z,6.40
2018-09-22T22:15:57.462Z,5.03
2018-09-22T22:18:25.357Z,4.53
2018-09-22T22:20:53.240Z,5.47
2018-09-22T22:23:21.118Z,5.03
2018-09-22T22:25:49.185Z,4.97
2018-09-22T22:28:17.061Z,5.63
2018-09-22T22:30:45.026Z,4.23
2018-09-22T22:33:12.950Z,4.67
2018-09-22T22:35:40.846Z,4.33
2018-09-22T22:38:08.722Z,4.50
2018-09-22T22:40:36.604Z,4.80
2018-09-22T22:43:04.751Z,3.97
2018-09-22T22:45:32.633Z,4.43
2018-09-22T22:48:00.514Z,4.90
2018-09-22T22:50:28.672Z,5.93
2018-09-22T22:52:56.542Z,5.40
2018-09-22T22:55:24.539Z,4.37
2018-09-22T22:57:52.565Z,4.53
2018-09-22T23:00:20.662Z,5.53
2018-09-22T23:02:48.705Z,4.53
2018-09-22T23:05:16.598Z,5.30
2018-09-22T23:07:44.473Z,4.83
2018-09-22T23:10:12.555Z,3.93
2018-09-22T23:12:40.425Z,5.80
2018-09-22T23:15:08.349Z,3.97
2018-09-22T23:17:36.513Z,4.57
2018-09-22T23:20:04.605Z,3.47
2018-09-22T23:22:32.487Z,4.23
2018-09-22T23:25:00.385Z,4.07
2018-09-22T23:27:34.870Z,4.97
2018-09-22T23:30:02.874Z,3.50
2018-09-22T23:32:30.786Z,3.80
2018-09-22T23:34:58.714Z,4.43
2018-09-22T23:37:26.606Z,4.30
2018-09-22T23:39:54.486Z,4.87
2018-09-22T23:42:22.373Z,4.20
2018-09-22T23:44:50.655Z,2.93
2018-09-22T23:47:18.542Z,4.37
2018-09-22T23:49:46.417Z,2.73
2018-09-22T23:52:14.314Z,5.57
2018-09-22T23:54:42.180Z,4.00
2018-09-22T23:57:10.069Z,4.87
2018-09-22T23:59:37.946Z,4.23
